FZRK weather

Kansimba Airport
Kansimba, Katanga Province, Congo (Kinshasa)

Public forecast

Using degrees Celsius for public forecast. Weather courtesy of forecast.io.

METAR (pilot weather report)

Report is more than 6 hours old.

Closest report is Mpanda Airport, 128.0 nm (237.1 km) ENE. Retrieved 2019/01/12 07:00 UTC (5 months ago):

HTMP 120700Z 06003KT 9999 FEW021CB BKN080 22/19 Q1020 RERA

TAF (pilot weather forecast)

Forecast is more than 12 hours old.

Closest forecast is Songwe Airport, 262.4 nm (485.9 km) ESE. Retrieved 2019/04/04 06:00 UTC (2 months ago):

TAF HTGW 040500Z 0406/0506 15010KT 9999 SCT018 FEW020CB BECMG 0412/0415 27010KT 9999 TSRA BKN025 FEW026CB